createdAt,value
2024-01-24T00:00:48.033Z,26.80
2024-01-24T00:01:48.101Z,26.81
2024-01-24T00:02:50.415Z,26.79
2024-01-24T00:03:48.432Z,26.80
2024-01-24T00:04:48.360Z,26.82
2024-01-24T00:05:48.381Z,26.83
2024-01-24T00:06:49.053Z,26.84
2024-01-24T00:07:48.524Z,26.84
2024-01-24T00:08:48.554Z,26.85
2024-01-24T00:09:48.686Z,26.87
2024-01-24T00:10:49.041Z,26.86
2024-01-24T00:11:48.825Z,26.84
2024-01-24T00:12:48.977Z,26.86
2024-01-24T00:13:48.939Z,26.87
2024-01-24T00:14:48.993Z,26.87
2024-01-24T00:15:49.197Z,26.89
2024-01-24T00:16:49.117Z,26.88
2024-01-24T00:17:49.564Z,26.96
2024-01-24T00:18:49.399Z,26.92
2024-01-24T00:19:49.351Z,26.88
2024-01-24T00:20:49.396Z,26.86
2024-01-24T00:21:49.540Z,26.86
2024-01-24T00:22:49.615Z,26.84
2024-01-24T00:23:49.585Z,26.88
2024-01-24T00:24:49.698Z,26.83
2024-01-24T00:25:49.741Z,26.84
2024-01-24T00:26:49.770Z,26.81
2024-01-24T00:27:49.924Z,26.80
2024-01-24T00:28:49.925Z,26.92
2024-01-24T00:29:49.976Z,26.87
2024-01-24T00:30:50.026Z,27.00
2024-01-24T00:31:50.053Z,26.98
2024-01-24T00:32:50.151Z,26.84
2024-01-24T00:33:50.229Z,26.52
2024-01-24T00:34:50.256Z,26.88
2024-01-24T00:35:50.288Z,26.98
2024-01-24T00:36:50.432Z,26.93
2024-01-24T00:37:50.403Z,26.71
2024-01-24T00:38:50.443Z,26.82
2024-01-24T00:39:50.883Z,26.88
2024-01-24T00:40:50.549Z,26.45
2024-01-24T00:41:50.601Z,26.31
2024-01-24T00:42:50.674Z,26.52
2024-01-24T00:43:50.673Z,26.43
2024-01-24T00:44:50.717Z,26.57
2024-01-24T00:45:50.969Z,26.72
2024-01-24T00:46:50.834Z,26.79
2024-01-24T00:47:50.881Z,26.84
2024-01-24T00:48:51.002Z,26.26
2024-01-24T00:49:50.948Z,26.25
2024-01-24T00:50:51.022Z,26.10
2024-01-24T00:51:51.089Z,26.19
2024-01-24T00:52:51.087Z,26.55
2024-01-24T00:53:51.144Z,26.66
2024-01-24T00:54:51.179Z,26.59
2024-01-24T00:55:51.202Z,26.23
2024-01-24T00:56:51.281Z,26.46
2024-01-24T00:57:51.331Z,26.65
2024-01-24T00:58:51.339Z,26.68
2024-01-24T00:59:51.364Z,26.73
2024-01-24T01:00:51.498Z,26.64
2024-01-24T01:01:51.498Z,26.51
2024-01-24T01:02:51.523Z,26.30
2024-01-24T01:03:51.609Z,26.13
2024-01-24T01:04:51.623Z,26.53
2024-01-24T01:05:51.631Z,26.43
2024-01-24T01:06:51.720Z,26.12
2024-01-24T01:07:51.761Z,26.33
2024-01-24T01:08:51.801Z,26.65
2024-01-24T01:09:51.881Z,26.36
2024-01-24T01:10:51.868Z,26.13
2024-01-24T01:11:51.925Z,26.21
2024-01-24T01:12:52.045Z,26.50
2024-01-24T01:13:52.003Z,26.77
2024-01-24T01:14:52.051Z,26.76
2024-01-24T01:15:52.137Z,26.60
2024-01-24T01:16:52.168Z,26.51
2024-01-24T01:17:52.230Z,26.51
2024-01-24T01:18:52.284Z,26.55
2024-01-24T01:19:52.253Z,26.64
2024-01-24T01:20:52.317Z,26.80
2024-01-24T01:21:52.452Z,26.62
2024-01-24T01:22:52.409Z,26.78
2024-01-24T01:23:52.473Z,26.68
2024-01-24T01:24:52.535Z,26.67
2024-01-24T01:25:52.640Z,26.38
2024-01-24T01:26:52.595Z,26.56
2024-01-24T01:27:52.759Z,26.71
2024-01-24T01:28:52.681Z,26.70
2024-01-24T01:29:52.712Z,26.26
2024-01-24T01:30:52.789Z,26.40
2024-01-24T01:31:52.827Z,26.48
2024-01-24T01:32:53.296Z,26.55
2024-01-24T01:33:53.059Z,26.72
2024-01-24T01:34:52.946Z,26.80
2024-01-24T01:35:57.918Z,26.67
2024-01-24T01:36:53.999Z,26.54
2024-01-24T01:37:53.042Z,26.57
2024-01-24T01:38:53.174Z,26.45
2024-01-24T01:39:53.248Z,26.52
2024-01-24T01:40:53.206Z,26.55
2024-01-24T01:41:53.050Z,26.53
2024-01-24T01:42:53.069Z,26.49
2024-01-24T01:43:53.153Z,26.71
2024-01-24T01:44:53.169Z,26.72
2024-01-24T01:45:53.208Z,26.70
2024-01-24T01:46:53.064Z,26.83
2024-01-24T01:47:53.127Z,26.88
2024-01-24T01:48:53.272Z,26.97
2024-01-24T01:49:53.080Z,26.56
2024-01-24T01:50:52.998Z,26.48
2024-01-24T01:51:53.066Z,26.71
2024-01-24T01:52:53.021Z,26.64
2024-01-24T01:53:53.016Z,26.66
2024-01-24T01:54:53.334Z,26.66
2024-01-24T01:55:53.060Z,26.56
2024-01-24T01:56:53.284Z,26.57
2024-01-24T01:57:53.343Z,26.64
2024-01-24T01:58:53.133Z,26.50
2024-01-24T01:59:53.209Z,26.71
2024-01-24T02:00:53.317Z,26.77
2024-01-24T02:01:53.195Z,26.64
2024-01-24T02:02:53.338Z,26.60
2024-01-24T02:03:53.399Z,26.25
2024-01-24T02:04:53.307Z,26.37
2024-01-24T02:05:53.363Z,26.58
2024-01-24T02:06:53.411Z,26.81
2024-01-24T02:07:53.531Z,26.73
2024-01-24T02:08:53.387Z,26.81
2024-01-24T02:09:53.556Z,26.82
2024-01-24T02:10:53.480Z,26.61
2024-01-24T02:11:53.506Z,26.68
2024-01-24T02:12:53.560Z,26.78
2024-01-24T02:13:53.539Z,26.94
2024-01-24T02:14:53.561Z,26.81
2024-01-24T02:15:53.660Z,26.86
2024-01-24T02:16:53.619Z,26.75
2024-01-24T02:17:53.672Z,26.53
2024-01-24T02:18:53.747Z,26.78
2024-01-24T02:19:53.742Z,26.71
2024-01-24T02:20:53.750Z,26.58
2024-01-24T02:21:53.772Z,26.56
2024-01-24T02:22:53.780Z,26.67
2024-01-24T02:23:53.801Z,26.69
2024-01-24T02:24:53.827Z,26.47
2024-01-24T02:25:53.845Z,26.39
2024-01-24T02:26:53.881Z,26.47
2024-01-24T02:27:53.966Z,26.28
2024-01-24T02:28:53.917Z,26.27
2024-01-24T02:29:53.980Z,26.64
2024-01-24T02:30:54.064Z,26.29
2024-01-24T02:31:54.037Z,26.52
2024-01-24T02:32:54.076Z,26.43
2024-01-24T02:33:54.128Z,26.36
2024-01-24T02:34:54.196Z,26.49
2024-01-24T02:35:54.090Z,26.49
2024-01-24T02:36:54.190Z,26.57
2024-01-24T02:37:54.163Z,26.81
2024-01-24T02:38:56.908Z,26.87
2024-01-24T02:39:54.294Z,26.86
2024-01-24T02:40:54.190Z,26.71
2024-01-24T02:41:54.230Z,26.71
2024-01-24T02:42:54.248Z,26.50
2024-01-24T02:43:54.195Z,26.69
2024-01-24T02:44:54.199Z,26.80
2024-01-24T02:45:54.305Z,26.38
2024-01-24T02:46:54.240Z,26.50
2024-01-24T02:47:54.305Z,26.44
2024-01-24T02:48:54.353Z,26.41
2024-01-24T02:49:54.241Z,26.10
2024-01-24T02:50:54.216Z,26.32
2024-01-24T02:51:54.269Z,26.54
2024-01-24T02:52:54.232Z,26.53
2024-01-24T02:53:54.259Z,26.66
2024-01-24T02:54:54.288Z,26.54
2024-01-24T02:55:54.247Z,26.52
2024-01-24T02:56:54.244Z,26.62
2024-01-24T02:57:54.379Z,26.55
2024-01-24T02:58:54.274Z,26.66
2024-01-24T02:59:54.270Z,26.67
2024-01-24T03:00:54.317Z,26.66
2024-01-24T03:01:54.246Z,26.47
2024-01-24T03:02:54.253Z,26.55
2024-01-24T03:03:54.286Z,26.44
2024-01-24T03:04:54.337Z,26.28
2024-01-24T03:05:54.337Z,26.45
2024-01-24T03:06:54.383Z,26.55
2024-01-24T03:07:54.286Z,26.42
2024-01-24T03:08:54.261Z,26.35
2024-01-24T03:09:54.306Z,26.47
2024-01-24T03:10:54.583Z,26.50
2024-01-24T03:11:54.257Z,26.54
2024-01-24T03:12:54.305Z,26.46
2024-01-24T03:13:54.283Z,26.40
2024-01-24T03:14:54.291Z,26.16
2024-01-24T03:15:54.372Z,26.53
2024-01-24T03:16:54.302Z,26.51
2024-01-24T03:17:54.345Z,26.33
2024-01-24T03:18:54.367Z,26.49
2024-01-24T03:19:54.315Z,26.74
2024-01-24T03:20:54.311Z,26.67
2024-01-24T03:21:54.400Z,26.60
2024-01-24T03:22:54.396Z,26.58
2024-01-24T03:23:54.399Z,26.22
2024-01-24T03:24:54.519Z,26.31
2024-01-24T03:25:54.440Z,26.07
2024-01-24T03:26:54.488Z,26.02
2024-01-24T03:27:54.538Z,26.10
2024-01-24T03:28:54.844Z,26.25
2024-01-24T03:29:54.589Z,26.19
2024-01-24T03:30:54.709Z,26.39
2024-01-24T03:31:54.712Z,26.43
2024-01-24T03:32:54.806Z,26.36
2024-01-24T03:33:55.122Z,26.14
2024-01-24T03:34:54.759Z,26.13
2024-01-24T03:35:54.753Z,26.32
2024-01-24T03:36:54.786Z,26.43
2024-01-24T03:37:54.837Z,26.39
2024-01-24T03:38:54.842Z,26.50
2024-01-24T03:39:54.922Z,26.49
2024-01-24T03:40:54.888Z,26.48
2024-01-24T03:41:54.968Z,26.37
2024-01-24T03:42:55.006Z,26.38
2024-01-24T03:43:55.051Z,26.06
2024-01-24T03:44:55.072Z,26.20
2024-01-24T03:45:55.069Z,26.41
2024-01-24T03:46:55.075Z,26.29
2024-01-24T03:47:55.160Z,26.54
2024-01-24T03:48:55.223Z,26.47
2024-01-24T03:49:55.236Z,26.55
2024-01-24T03:50:55.210Z,26.24
2024-01-24T03:51:55.253Z,26.43
2024-01-24T03:52:55.264Z,26.57
2024-01-24T03:53:55.260Z,26.61
2024-01-24T03:54:55.361Z,26.45
2024-01-24T03:55:55.362Z,26.25
2024-01-24T03:56:55.386Z,26.20
2024-01-24T03:57:55.415Z,26.23
2024-01-24T03:58:55.449Z,26.13
2024-01-24T03:59:55.491Z,26.01
2024-01-24T04:00:55.595Z,26.30
2024-01-24T04:01:55.520Z,26.35
2024-01-24T04:02:55.630Z,26.35
2024-01-24T04:03:55.646Z,26.39
2024-01-24T04:04:55.683Z,26.34
2024-01-24T04:05:55.696Z,26.47
2024-01-24T04:06:55.779Z,26.48
2024-01-24T04:07:55.708Z,26.40
2024-01-24T04:08:55.763Z,26.08
2024-01-24T04:09:56.137Z,26.29
2024-01-24T04:10:55.789Z,26.19
2024-01-24T04:11:55.845Z,26.08
2024-01-24T04:12:56.015Z,26.00
2024-01-24T04:13:55.893Z,25.86
2024-01-24T04:14:56.266Z,26.18
2024-01-24T04:15:56.018Z,26.05
2024-01-24T04:16:55.962Z,25.89
2024-01-24T04:17:56.082Z,25.80
2024-01-24T04:18:56.127Z,26.07
2024-01-24T04:19:56.109Z,26.32
2024-01-24T04:20:56.105Z,26.23
2024-01-24T04:21:56.268Z,26.23
2024-01-24T04:22:56.171Z,26.23
2024-01-24T04:23:56.559Z,26.19
2024-01-24T04:24:56.331Z,26.07
2024-01-24T04:25:56.261Z,26.28
2024-01-24T04:26:56.303Z,26.04
2024-01-24T04:27:56.363Z,26.20
2024-01-24T04:29:03.524Z,26.37
2024-01-24T04:30:03.539Z,26.11
2024-01-24T04:31:10.762Z,26.37
2024-01-24T04:32:10.766Z,26.32
2024-01-24T04:33:10.814Z,26.29
2024-01-24T04:34:11.184Z,26.03
2024-01-24T04:35:10.810Z,25.98
2024-01-24T04:36:10.819Z,26.14
2024-01-24T04:37:10.732Z,26.20
2024-01-24T04:38:10.757Z,26.25
2024-01-24T04:39:10.768Z,26.09
2024-01-24T04:40:10.801Z,26.32
2024-01-24T04:41:10.792Z,26.40
2024-01-24T04:42:16.172Z,26.47
2024-01-24T04:43:11.821Z,26.24
2024-01-24T04:44:10.773Z,26.41
2024-01-24T04:45:11.086Z,26.41
2024-01-24T04:46:11.118Z,26.35
2024-01-24T04:47:11.194Z,26.40
2024-01-24T04:48:11.139Z,26.29
2024-01-24T04:49:22.965Z,26.23
2024-01-24T04:50:11.927Z,26.31
2024-01-24T04:51:10.791Z,26.35
2024-01-24T04:52:10.790Z,26.54
2024-01-24T04:53:10.829Z,26.44
2024-01-24T04:54:10.816Z,26.34
2024-01-24T04:55:10.821Z,26.50
2024-01-24T04:56:10.808Z,26.41
2024-01-24T04:57:10.811Z,26.35
2024-01-24T04:58:10.816Z,26.29
2024-01-24T04:59:10.793Z,26.25
2024-01-24T05:00:10.799Z,26.12
2024-01-24T05:01:10.918Z,26.20
2024-01-24T05:02:10.824Z,26.40
2024-01-24T05:03:10.894Z,26.17
2024-01-24T05:04:10.964Z,26.34
2024-01-24T05:05:10.878Z,26.12
2024-01-24T05:06:11.733Z,26.17
2024-01-24T05:07:10.892Z,26.11
2024-01-24T05:08:11.140Z,26.08
2024-01-24T05:09:11.150Z,25.99
2024-01-24T05:10:10.844Z,26.02
2024-01-24T05:11:10.808Z,25.90
2024-01-24T05:12:10.843Z,25.93
2024-01-24T05:13:10.848Z,26.19
2024-01-24T05:14:10.846Z,26.15
2024-01-24T05:15:10.850Z,26.00
2024-01-24T05:16:10.871Z,26.20
2024-01-24T05:17:10.929Z,26.24
2024-01-24T05:18:11.105Z,26.13
2024-01-24T05:19:11.020Z,25.96
2024-01-24T05:20:10.970Z,26.05
2024-01-24T05:21:11.028Z,25.95
2024-01-24T05:22:11.023Z,26.03
2024-01-24T05:23:11.088Z,26.23
2024-01-24T05:24:11.119Z,26.03
2024-01-24T05:25:11.134Z,25.94
2024-01-24T05:26:11.516Z,25.92
2024-01-24T05:27:11.241Z,25.88
2024-01-24T05:28:11.291Z,25.87
2024-01-24T05:29:11.250Z,25.89
2024-01-24T05:30:16.922Z,25.87
2024-01-24T05:31:12.326Z,25.89
2024-01-24T05:32:11.274Z,25.96
2024-01-24T05:33:11.309Z,25.96
2024-01-24T05:34:11.373Z,26.01
2024-01-24T05:35:11.284Z,26.06
2024-01-24T05:36:11.273Z,26.01
2024-01-24T05:37:11.297Z,25.92
2024-01-24T05:38:11.319Z,25.93
2024-01-24T05:39:11.307Z,26.09
2024-01-24T05:40:11.298Z,25.91
2024-01-24T05:41:11.305Z,25.96
2024-01-24T05:42:11.636Z,25.91
2024-01-24T05:43:11.325Z,25.87
2024-01-24T05:44:11.306Z,25.86
2024-01-24T05:45:11.303Z,25.88
2024-01-24T05:46:11.296Z,25.97
2024-01-24T05:47:11.326Z,26.03
2024-01-24T05:48:11.404Z,26.01
2024-01-24T05:49:11.611Z,26.03
2024-01-24T05:50:11.387Z,26.13
2024-01-24T05:51:11.459Z,25.88
2024-01-24T05:52:11.451Z,26.06
2024-01-24T05:53:11.520Z,26.12
2024-01-24T05:54:11.886Z,25.86
2024-01-24T05:55:11.555Z,25.81
2024-01-24T05:56:11.577Z,25.89
2024-01-24T05:57:11.636Z,25.81
2024-01-24T05:58:11.651Z,25.90
2024-01-24T05:59:15.224Z,26.04
2024-01-24T06:00:11.886Z,25.93
2024-01-24T06:02:40.949Z,26.92
2024-01-24T06:03:18.043Z,26.33
2024-01-24T06:04:18.019Z,26.07
2024-01-24T06:05:18.045Z,26.18
2024-01-24T06:06:18.102Z,26.53
2024-01-24T06:07:18.045Z,26.55
2024-01-24T06:08:18.003Z,26.56
2024-01-24T06:09:17.980Z,26.32
2024-01-24T06:10:17.963Z,26.18
2024-01-24T06:11:17.969Z,26.14
2024-01-24T06:12:17.978Z,26.31
2024-01-24T06:13:18.000Z,26.48
2024-01-24T06:14:18.077Z,26.12
2024-01-24T06:15:18.142Z,26.02
2024-01-24T06:16:18.111Z,25.87
2024-01-24T06:17:18.195Z,25.87
2024-01-24T06:18:18.292Z,26.16
2024-01-24T06:19:18.412Z,25.90
2024-01-24T06:20:18.321Z,25.89
2024-01-24T06:21:18.395Z,25.99
2024-01-24T06:22:18.319Z,26.09
2024-01-24T06:23:18.391Z,25.87
2024-01-24T06:24:19.488Z,25.90
2024-01-24T06:25:18.438Z,26.17
2024-01-24T06:26:18.452Z,26.07
2024-01-24T06:27:18.512Z,25.92
2024-01-24T06:28:18.649Z,25.87
2024-01-24T06:29:18.622Z,25.83
2024-01-24T06:31:18.782Z,26.83
2024-01-24T06:32:18.682Z,27.22
2024-01-24T06:33:19.070Z,27.26
2024-01-24T06:34:18.726Z,27.56
2024-01-24T06:35:18.783Z,27.63
2024-01-24T06:36:18.792Z,27.61
2024-01-24T06:37:18.708Z,27.69
2024-01-24T06:38:18.658Z,27.92
2024-01-24T06:39:18.712Z,27.90
2024-01-24T06:40:18.745Z,27.87
2024-01-24T06:41:18.803Z,27.88
2024-01-24T06:42:18.805Z,28.18
2024-01-24T06:43:18.777Z,28.21
2024-01-24T06:44:18.793Z,28.62
2024-01-24T06:45:19.015Z,28.81
2024-01-24T06:47:49.585Z,30.22
2024-01-24T06:48:25.279Z,29.49
2024-01-24T06:49:25.621Z,29.28
2024-01-24T06:50:25.182Z,29.14
2024-01-24T06:51:25.371Z,29.09
2024-01-24T06:52:25.306Z,29.12
2024-01-24T06:53:25.300Z,29.01
2024-01-24T06:54:25.298Z,28.82
2024-01-24T06:55:25.292Z,28.62
2024-01-24T06:56:25.340Z,28.49
2024-01-24T06:57:25.584Z,29.16
2024-01-24T06:58:25.332Z,28.26
2024-01-24T06:59:25.281Z,27.98
2024-01-24T07:00:25.466Z,28.89
2024-01-24T07:01:25.466Z,28.42
2024-01-24T07:02:25.351Z,27.55
2024-01-24T07:03:25.363Z,27.69
2024-01-24T07:04:25.389Z,27.68
2024-01-24T07:05:25.315Z,27.57
2024-01-24T07:06:25.468Z,27.47
2024-01-24T07:07:25.449Z,27.45
2024-01-24T07:08:25.356Z,27.23
2024-01-24T07:09:25.330Z,26.99
2024-01-24T07:10:28.003Z,26.86
2024-01-24T07:11:25.257Z,27.25
2024-01-24T07:12:25.666Z,27.18
2024-01-24T07:13:25.338Z,27.06
2024-01-24T07:14:25.194Z,26.90
2024-01-24T07:15:25.316Z,26.85
2024-01-24T07:16:25.723Z,26.76
2024-01-24T07:17:25.312Z,26.72
2024-01-24T07:18:25.593Z,26.99
2024-01-24T07:19:25.394Z,27.42
2024-01-24T07:20:25.306Z,27.06
2024-01-24T07:21:25.394Z,27.42
2024-01-24T07:22:25.440Z,27.47
2024-01-24T07:23:25.276Z,27.21
2024-01-24T07:24:25.268Z,27.21
2024-01-24T07:25:25.359Z,27.07
2024-01-24T07:26:25.240Z,26.99
2024-01-24T07:27:25.378Z,27.50
2024-01-24T07:28:25.409Z,27.45
2024-01-24T07:29:25.278Z,27.51
2024-01-24T07:30:25.527Z,27.48
2024-01-24T07:31:25.371Z,28.49
2024-01-24T07:32:25.336Z,27.36
2024-01-24T07:33:25.829Z,27.22
2024-01-24T07:34:25.553Z,27.97
2024-01-24T07:35:25.403Z,27.73
2024-01-24T07:36:25.419Z,27.81
2024-01-24T07:37:25.462Z,27.92
2024-01-24T07:38:25.720Z,28.32
2024-01-24T07:39:25.443Z,29.21
2024-01-24T07:40:25.405Z,30.97
2024-01-24T07:41:25.479Z,31.34
2024-01-24T07:42:25.561Z,30.35
2024-01-24T07:43:25.863Z,29.66
2024-01-24T07:44:25.271Z,29.07
2024-01-24T07:45:25.357Z,29.06
2024-01-24T07:46:25.328Z,29.09
2024-01-24T07:47:25.512Z,28.75
2024-01-24T07:48:25.525Z,28.88
2024-01-24T07:49:25.331Z,28.85
2024-01-24T07:50:25.276Z,28.76
2024-01-24T07:51:25.296Z,28.99
2024-01-24T07:52:32.484Z,29.24
2024-01-24T07:53:26.299Z,29.02
2024-01-24T07:54:25.335Z,29.28
2024-01-24T07:55:32.252Z,29.24
2024-01-24T07:56:27.309Z,29.16
2024-01-24T07:57:25.530Z,29.01
2024-01-24T07:58:25.621Z,28.85
2024-01-24T07:59:25.472Z,28.79
2024-01-24T08:00:25.579Z,28.73
2024-01-24T08:01:25.650Z,28.77
2024-01-24T08:02:25.750Z,28.56
2024-01-24T08:03:26.429Z,28.71
2024-01-24T08:04:25.770Z,27.86
2024-01-24T08:05:25.716Z,28.47
2024-01-24T08:06:25.759Z,28.78
2024-01-24T08:07:25.768Z,29.31
2024-01-24T08:08:26.462Z,29.34
2024-01-24T08:09:25.839Z,29.37
2024-01-24T08:10:25.837Z,29.09
2024-01-24T08:11:26.510Z,29.15
2024-01-24T08:12:26.044Z,28.72
2024-01-24T08:13:26.188Z,28.50
2024-01-24T08:14:26.173Z,28.84
2024-01-24T08:15:26.079Z,28.30
2024-01-24T08:16:26.082Z,28.22
2024-01-24T08:17:26.178Z,28.58
2024-01-24T08:18:26.291Z,28.80
2024-01-24T08:19:26.329Z,28.67
2024-01-24T08:20:26.263Z,28.59
2024-01-24T08:21:26.387Z,28.76
2024-01-24T08:22:26.365Z,28.44
2024-01-24T08:23:31.675Z,28.51
2024-01-24T08:24:27.425Z,28.80
2024-01-24T08:25:26.398Z,28.53
2024-01-24T08:26:26.404Z,28.54
2024-01-24T08:27:26.474Z,28.68
2024-01-24T08:28:26.451Z,28.80
2024-01-24T08:29:32.765Z,28.75
2024-01-24T08:30:27.467Z,28.89
2024-01-24T08:31:26.415Z,29.17
2024-01-24T08:32:26.433Z,30.25
2024-01-24T08:33:26.527Z,29.93
2024-01-24T08:34:26.593Z,30.72
2024-01-24T08:35:26.996Z,31.33
2024-01-24T08:36:26.400Z,31.77
2024-01-24T08:37:26.413Z,31.01
2024-01-24T08:38:26.405Z,30.39
2024-01-24T08:39:26.442Z,30.00
2024-01-24T08:40:26.404Z,30.03
2024-01-24T08:41:26.443Z,30.02
2024-01-24T08:42:26.468Z,30.06
2024-01-24T08:43:26.437Z,29.92
2024-01-24T08:44:26.452Z,29.72
2024-01-24T08:45:26.509Z,29.55
2024-01-24T08:46:26.466Z,29.49
2024-01-24T08:47:26.489Z,29.42
2024-01-24T08:48:26.694Z,29.48
2024-01-24T08:49:26.731Z,29.75
2024-01-24T08:50:26.665Z,30.10
2024-01-24T08:51:26.745Z,30.12
2024-01-24T08:52:26.801Z,29.83
2024-01-24T08:53:26.827Z,29.62
2024-01-24T08:54:26.903Z,29.65
2024-01-24T08:55:26.993Z,29.88
2024-01-24T08:56:26.981Z,29.49
2024-01-24T08:57:27.070Z,29.55
2024-01-24T08:58:27.025Z,29.37
2024-01-24T08:59:27.077Z,29.48
2024-01-24T09:00:27.130Z,29.42
2024-01-24T09:01:29.217Z,29.27
2024-01-24T09:02:27.159Z,29.20
2024-01-24T09:03:27.309Z,29.11
2024-01-24T09:04:27.221Z,29.18
2024-01-24T09:05:27.386Z,29.39
2024-01-24T09:06:27.224Z,29.12
2024-01-24T09:07:27.187Z,29.01
2024-01-24T09:08:27.156Z,29.11
2024-01-24T09:09:27.202Z,29.34
2024-01-24T09:10:27.300Z,29.18
2024-01-24T09:11:31.574Z,29.08
2024-01-24T09:12:28.163Z,29.10
2024-01-24T09:13:27.165Z,29.22
2024-01-24T09:14:27.178Z,29.35
2024-01-24T09:15:27.209Z,29.45
2024-01-24T09:16:27.197Z,29.51
2024-01-24T09:17:27.195Z,29.57
2024-01-24T09:18:27.354Z,29.59
2024-01-24T09:19:27.286Z,29.62
2024-01-24T09:20:27.305Z,29.69
2024-01-24T09:21:27.210Z,29.60
2024-01-24T09:22:27.180Z,29.84
2024-01-24T09:23:27.196Z,29.51
2024-01-24T09:24:27.593Z,29.26
2024-01-24T09:25:27.275Z,29.24
2024-01-24T09:26:27.255Z,29.45
2024-01-24T09:27:27.278Z,29.04
2024-01-24T09:28:27.275Z,28.75
2024-01-24T09:29:27.272Z,28.64
2024-01-24T09:30:27.401Z,28.80
2024-01-24T09:31:27.333Z,29.78
2024-01-24T09:32:27.341Z,29.80
2024-01-24T09:33:27.520Z,29.74
2024-01-24T09:34:27.795Z,29.81
2024-01-24T09:35:27.480Z,29.81
2024-01-24T09:36:27.353Z,29.76
2024-01-24T09:37:28.046Z,30.05
2024-01-24T09:38:27.410Z,30.12
2024-01-24T09:39:27.662Z,30.15
2024-01-24T09:40:27.668Z,30.06
2024-01-24T09:41:27.656Z,30.13
2024-01-24T09:42:27.723Z,30.13
2024-01-24T09:43:28.091Z,30.08
2024-01-24T09:44:28.093Z,30.16
2024-01-24T09:45:27.847Z,30.09
2024-01-24T09:46:27.816Z,29.87
2024-01-24T09:47:27.863Z,29.80
2024-01-24T09:48:27.934Z,29.84
2024-01-24T09:49:27.953Z,30.46
2024-01-24T09:50:28.069Z,30.70
2024-01-24T09:51:28.065Z,30.65
2024-01-24T09:52:28.117Z,31.27
2024-01-24T09:53:28.195Z,31.75
2024-01-24T09:54:28.237Z,32.05
2024-01-24T09:55:28.297Z,31.58
2024-01-24T09:56:28.282Z,31.15
2024-01-24T09:57:28.355Z,31.05
2024-01-24T09:58:28.375Z,30.89
2024-01-24T09:59:28.431Z,30.78
2024-01-24T10:00:28.529Z,30.64
2024-01-24T10:01:28.600Z,30.53
2024-01-24T10:02:28.630Z,30.16
2024-01-24T10:03:28.702Z,30.08
2024-01-24T10:04:28.920Z,30.13
2024-01-24T10:05:28.772Z,29.70
2024-01-24T10:06:28.806Z,29.73
2024-01-24T10:07:28.827Z,29.51
2024-01-24T10:08:28.824Z,29.45
2024-01-24T10:09:28.892Z,29.39
2024-01-24T10:10:28.867Z,29.54
2024-01-24T10:11:28.901Z,29.33
2024-01-24T10:12:28.907Z,29.29
2024-01-24T10:13:28.914Z,29.29
2024-01-24T10:14:28.902Z,29.33
2024-01-24T10:15:28.940Z,29.26
2024-01-24T10:16:28.963Z,29.21
2024-01-24T10:17:28.995Z,29.19
2024-01-24T10:18:29.075Z,29.16
2024-01-24T10:19:29.082Z,29.15
2024-01-24T10:20:28.984Z,29.22
2024-01-24T10:21:28.971Z,29.20
2024-01-24T10:22:29.039Z,29.08
2024-01-24T10:23:28.960Z,29.32
2024-01-24T10:24:29.074Z,29.27
2024-01-24T10:25:29.008Z,29.46
2024-01-24T10:26:28.937Z,29.49
2024-01-24T10:27:30.310Z,29.53
2024-01-24T10:28:29.162Z,29.87
2024-01-24T10:29:29.106Z,30.01
2024-01-24T10:30:29.130Z,29.95
2024-01-24T10:31:29.117Z,29.97
2024-01-24T10:32:29.156Z,29.94
2024-01-24T10:33:29.284Z,29.83
2024-01-24T10:34:29.368Z,29.84
2024-01-24T10:35:29.170Z,30.00
2024-01-24T10:36:32.751Z,30.00
2024-01-24T10:37:30.250Z,29.95
2024-01-24T10:38:29.177Z,29.75
2024-01-24T10:39:29.179Z,29.58
2024-01-24T10:40:29.186Z,29.55
2024-01-24T10:41:29.464Z,29.68
2024-01-24T10:42:29.236Z,31.68
2024-01-24T10:43:29.156Z,32.01
2024-01-24T10:44:29.145Z,31.98
2024-01-24T10:45:29.593Z,31.70
2024-01-24T10:46:29.326Z,31.88
2024-01-24T10:47:31.602Z,32.10
2024-01-24T10:48:29.311Z,31.99
2024-01-24T10:49:29.206Z,31.55
2024-01-24T10:50:30.090Z,31.22
2024-01-24T10:51:29.223Z,31.67
2024-01-24T10:52:29.183Z,31.76
2024-01-24T10:53:29.183Z,31.67
2024-01-24T10:54:29.212Z,31.43
2024-01-24T10:55:29.608Z,31.31
2024-01-24T10:56:29.168Z,31.22
2024-01-24T10:57:29.186Z,31.12
2024-01-24T10:58:29.161Z,31.02
2024-01-24T10:59:29.177Z,30.99
2024-01-24T11:00:29.596Z,30.88
2024-01-24T11:01:29.310Z,30.76
2024-01-24T11:02:29.309Z,30.66
2024-01-24T11:03:29.280Z,30.56
2024-01-24T11:04:29.212Z,30.55
2024-01-24T11:05:29.678Z,30.40
2024-01-24T11:06:29.236Z,30.60
2024-01-24T11:07:29.179Z,30.60
2024-01-24T11:08:39.479Z,30.61
2024-01-24T11:09:30.282Z,30.55
2024-01-24T11:10:29.201Z,30.52
2024-01-24T11:11:29.217Z,30.46
2024-01-24T11:12:29.257Z,30.30
2024-01-24T11:13:30.100Z,30.35
2024-01-24T11:14:29.218Z,30.36
2024-01-24T11:15:29.211Z,30.12
2024-01-24T11:16:29.217Z,30.05
2024-01-24T11:17:29.274Z,30.24
2024-01-24T11:18:29.360Z,30.44
2024-01-24T11:19:29.491Z,30.56
2024-01-24T11:20:29.429Z,30.57
2024-01-24T11:21:29.860Z,30.79
2024-01-24T11:22:30.909Z,30.74
2024-01-24T11:23:29.635Z,30.97
2024-01-24T11:24:29.741Z,31.93
2024-01-24T11:25:30.068Z,32.06
2024-01-24T11:26:29.881Z,32.23
2024-01-24T11:27:29.938Z,31.78
2024-01-24T11:28:30.061Z,31.80
2024-01-24T11:29:30.094Z,31.65
2024-01-24T11:30:30.622Z,31.47
2024-01-24T11:31:30.289Z,30.95
2024-01-24T11:32:30.436Z,30.36
2024-01-24T11:33:30.370Z,30.67
2024-01-24T11:34:30.337Z,33.02
2024-01-24T11:35:30.593Z,32.84
2024-01-24T11:36:30.346Z,32.52
2024-01-24T11:37:30.321Z,32.26
2024-01-24T11:38:31.544Z,32.31
2024-01-24T11:39:30.451Z,32.24
2024-01-24T11:40:30.662Z,32.44
2024-01-24T11:41:30.549Z,32.31
2024-01-24T11:42:30.699Z,32.31
2024-01-24T11:43:32.841Z,32.17
2024-01-24T11:44:30.710Z,32.15
2024-01-24T11:45:31.209Z,32.13
2024-01-24T11:46:30.732Z,32.03
2024-01-24T11:47:30.757Z,31.92
2024-01-24T11:48:30.894Z,32.02
2024-01-24T11:49:31.087Z,32.04
2024-01-24T11:50:30.726Z,32.33
2024-01-24T11:51:30.771Z,31.80
2024-01-24T11:52:30.739Z,31.66
2024-01-24T11:53:30.735Z,31.65
2024-01-24T11:54:30.773Z,31.65
2024-01-24T11:55:30.732Z,31.51
2024-01-24T11:56:30.747Z,31.49
2024-01-24T11:57:30.791Z,31.43
2024-01-24T11:58:30.775Z,31.33
2024-01-24T11:59:30.716Z,31.43
2024-01-24T12:00:30.779Z,31.43
2024-01-24T12:01:30.896Z,31.42
2024-01-24T12:02:30.721Z,31.40
2024-01-24T12:03:30.842Z,31.40
2024-01-24T12:04:30.806Z,31.22
2024-01-24T12:05:30.764Z,31.10
2024-01-24T12:06:30.796Z,31.11
2024-01-24T12:07:30.788Z,31.11
2024-01-24T12:08:30.747Z,30.99
2024-01-24T12:09:30.834Z,30.90
2024-01-24T12:10:30.823Z,30.82
2024-01-24T12:11:30.873Z,30.77
2024-01-24T12:12:30.937Z,30.73
2024-01-24T12:13:31.096Z,30.73
2024-01-24T12:14:30.920Z,30.74
2024-01-24T12:15:31.026Z,30.60
2024-01-24T12:16:31.024Z,30.63
2024-01-24T12:17:31.097Z,30.77
2024-01-24T12:18:31.157Z,30.64
2024-01-24T12:19:31.246Z,30.92
2024-01-24T12:20:31.174Z,30.72
2024-01-24T12:21:31.236Z,30.68
2024-01-24T12:22:31.217Z,30.90
2024-01-24T12:23:31.214Z,30.99
2024-01-24T12:24:31.292Z,31.34
2024-01-24T12:25:31.278Z,31.58
2024-01-24T12:26:31.630Z,31.29
2024-01-24T12:27:31.304Z,32.15
2024-01-24T12:28:31.632Z,32.41
2024-01-24T12:29:31.460Z,32.67
2024-01-24T12:30:31.526Z,32.78
2024-01-24T12:31:32.405Z,32.13
2024-01-24T12:32:31.674Z,32.86
2024-01-24T12:33:31.750Z,32.72
2024-01-24T12:34:31.871Z,32.44
2024-01-24T12:35:31.663Z,32.50
2024-01-24T12:36:31.693Z,32.55
2024-01-24T12:37:31.705Z,32.57
2024-01-24T12:38:31.722Z,32.38
2024-01-24T12:39:31.745Z,32.36
2024-01-24T12:40:31.723Z,32.32
2024-01-24T12:41:31.763Z,32.19
2024-01-24T12:42:31.730Z,32.33
2024-01-24T12:43:31.756Z,32.15
2024-01-24T12:44:31.822Z,32.16
2024-01-24T12:45:31.785Z,31.91
2024-01-24T12:46:32.174Z,32.12
2024-01-24T12:47:31.857Z,31.89
2024-01-24T12:48:31.886Z,32.02
2024-01-24T12:49:31.914Z,32.04
2024-01-24T12:50:31.952Z,32.08
2024-01-24T12:51:31.917Z,31.91
2024-01-24T12:52:31.876Z,31.45
2024-01-24T12:53:31.878Z,31.37
2024-01-24T12:54:31.889Z,31.52
2024-01-24T12:55:31.899Z,31.23
2024-01-24T12:56:31.923Z,31.08